createdAt,value
2022-08-14T00:04:35.061Z,31.8
2022-08-14T00:10:02.257Z,31.8
2022-08-14T00:15:21.743Z,31.8
2022-08-14T00:20:50.999Z,31.8
2022-08-14T00:26:22.973Z,31.8
2022-08-14T00:31:53.872Z,31.8
2022-08-14T00:37:20.442Z,31.8
2022-08-14T00:42:55.530Z,31.8
2022-08-14T00:48:34.734Z,31.8
2022-08-14T00:53:50.059Z,31.8
2022-08-14T00:59:20.269Z,31.8
2022-08-14T01:04:54.408Z,31.8
2022-08-14T01:10:19.711Z,31.8
2022-08-14T01:15:58.204Z,31.8
2022-08-14T01:21:19.163Z,31.7
2022-08-14T01:26:50.623Z,31.7
2022-08-14T01:32:23.296Z,31.7
2022-08-14T01:37:56.577Z,31.8
2022-08-14T01:43:22.125Z,31.7
2022-08-14T01:48:49.319Z,31.7
2022-08-14T01:54:18.552Z,31.7
2022-08-14T01:59:48.744Z,31.7
2022-08-14T02:05:17.984Z,31.7
2022-08-14T02:10:48.177Z,31.7
2022-08-14T02:16:22.553Z,31.7
2022-08-14T02:21:50.373Z,31.7
2022-08-14T02:28:22.505Z,31.7
2022-08-14T02:32:48.326Z,31.7
2022-08-14T02:38:29.901Z,31.6
2022-08-14T02:43:48.441Z,31.6
2022-08-14T02:49:16.563Z,31.6
2022-08-14T02:54:46.776Z,31.6
2022-08-14T03:00:18.542Z,31.6
2022-08-14T03:05:46.195Z,31.6
2022-08-14T03:11:16.406Z,31.6
2022-08-14T03:16:45.618Z,31.6
2022-08-14T03:22:17.678Z,31.6
2022-08-14T03:27:48.431Z,31.6
2022-08-14T03:33:15.302Z,31.6
2022-08-14T03:39:11.640Z,31.6
2022-08-14T03:45:20.164Z,31.6
2022-08-14T03:49:49.731Z,31.6
2022-08-14T03:55:15.150Z,31.5
2022-08-14T04:00:45.118Z,31.5
2022-08-14T04:06:14.557Z,31.5
2022-08-14T04:11:44.769Z,31.5
2022-08-14T04:17:13.949Z,31.5
2022-08-14T04:22:44.484Z,31.5
2022-08-14T04:29:08.342Z,31.5
2022-08-14T04:33:43.978Z,31.5
2022-08-14T04:39:13.700Z,31.5
2022-08-14T04:44:43.895Z,31.5
2022-08-14T04:50:13.125Z,31.5
2022-08-14T04:55:43.306Z,31.5
2022-08-14T05:01:19.633Z,31.5
2022-08-14T05:06:42.843Z,31.5
2022-08-14T05:13:12.694Z,31.5
2022-08-14T05:17:43.997Z,31.4
2022-08-14T05:23:12.494Z,31.4
2022-08-14T05:28:41.702Z,31.5
2022-08-14T05:34:11.997Z,31.5
2022-08-14T05:39:42.177Z,31.4
2022-08-14T05:45:13.713Z,31.5
2022-08-14T05:50:41.516Z,31.4
2022-08-14T05:56:11.734Z,31.4
2022-08-14T06:01:40.949Z,31.3
2022-08-14T06:07:11.163Z,31.2
2022-08-14T06:12:55.794Z,31.1
2022-08-14T06:18:10.641Z,31.1
2022-08-14T06:23:41.065Z,31.1
2022-08-14T06:29:10.354Z,31.1
2022-08-14T06:35:02.760Z,31.1
2022-08-14T06:40:16.678Z,31
2022-08-14T06:45:39.298Z,31.1
2022-08-14T06:51:09.585Z,31.1
2022-08-14T06:56:39.880Z,31.2
2022-08-14T07:02:13.607Z,31.2
2022-08-14T07:07:39.527Z,31.3
2022-08-14T07:13:08.958Z,31.3
2022-08-14T07:18:40.723Z,31.4
2022-08-14T07:24:09.790Z,31.4
2022-08-14T07:29:38.519Z,31.4
2022-08-14T07:35:08.744Z,31.5
2022-08-14T07:40:38.983Z,31.5
2022-08-14T07:46:08.258Z,31.6
2022-08-14T07:51:38.496Z,31.7
2022-08-14T07:57:12.640Z,31.7
2022-08-14T08:02:37.956Z,31.8
2022-08-14T08:08:08.488Z,31.8
2022-08-14T08:13:39.469Z,31.9
2022-08-14T08:19:12.683Z,31.8
2022-08-14T08:24:37.824Z,32
2022-08-14T08:30:10.114Z,32
2022-08-14T08:35:47.035Z,32.1
2022-08-14T08:41:11.105Z,32.3
2022-08-14T08:46:37.747Z,32.3
2022-08-14T08:52:07.899Z,32.4
2022-08-14T08:57:38.195Z,32.4
2022-08-14T09:03:07.299Z,32.5
2022-08-14T09:08:37.455Z,32.6
2022-08-14T09:14:06.628Z,32.6
2022-08-14T09:19:36.790Z,32.7
2022-08-14T09:25:07.610Z,32.7
2022-08-14T09:30:36.130Z,32.7
2022-08-14T09:36:06.244Z,32.8
2022-08-14T09:42:17.638Z,32.8
2022-08-14T09:47:05.511Z,32.8
2022-08-14T09:52:35.671Z,32.8
2022-08-14T09:58:04.833Z,32.7
2022-08-14T10:03:34.965Z,32.7
2022-08-14T10:09:05.134Z,32.7
2022-08-14T10:14:35.645Z,32.7
2022-08-14T10:20:04.431Z,32.7
2022-08-14T10:25:34.146Z,32.7
2022-08-14T10:31:03.701Z,32.8
2022-08-14T10:36:37.129Z,32.8
2022-08-14T10:42:03.915Z,32.8
2022-08-14T10:47:39.943Z,32.8
2022-08-14T10:53:04.231Z,32.9
2022-08-14T10:58:34.538Z,32.9
2022-08-14T11:04:04.481Z,32.9
2022-08-14T11:09:33.506Z,32.9
2022-08-14T11:15:03.620Z,32.9
2022-08-14T11:20:33.687Z,32.9
2022-08-14T11:26:02.839Z,32.9
2022-08-14T11:31:35.595Z,32.9
2022-08-14T11:37:18.102Z,33
2022-08-14T11:42:58.470Z,32.9
2022-08-14T11:48:13.161Z,32.9
2022-08-14T11:53:32.466Z,32.9
2022-08-14T11:59:01.593Z,32.9
2022-08-14T12:04:33.902Z,32.9
2022-08-14T12:10:01.853Z,32.9
2022-08-14T12:15:30.993Z,33
2022-08-14T12:21:01.076Z,33
2022-08-14T12:26:39.263Z,33.1
2022-08-14T12:32:00.314Z,33.1
2022-08-14T12:37:30.403Z,33.2
2022-08-14T12:43:00.526Z,33.2
2022-08-14T12:48:32.052Z,33.3
2022-08-14T12:54:00.148Z,33.3
2022-08-14T12:59:28.861Z,33.3
2022-08-14T13:04:58.961Z,33.4
2022-08-14T13:10:51.213Z,33.3
2022-08-14T13:15:59.129Z,33.4
2022-08-14T13:21:28.236Z,33.4
2022-08-14T13:26:58.360Z,33.4
2022-08-14T13:32:28.392Z,33.4
2022-08-14T13:37:57.488Z,33.5
2022-08-14T13:43:31.441Z,33.5
2022-08-14T13:48:57.663Z,33.5
2022-08-14T13:54:27.748Z,33.5
2022-08-14T13:59:56.867Z,33.5
2022-08-14T14:05:25.996Z,33.5
2022-08-14T14:10:56.093Z,33.4
2022-08-14T14:16:30.170Z,33.5
2022-08-14T14:21:55.320Z,33.5
2022-08-14T14:27:40.301Z,33.4
2022-08-14T14:33:05.396Z,33.4
2022-08-14T14:38:30.732Z,33.4
2022-08-14T14:43:54.702Z,33.4
2022-08-14T14:49:31.818Z,33.4
2022-08-14T14:54:53.886Z,33.4
2022-08-14T15:00:23.974Z,33.4
2022-08-14T15:05:54.042Z,33.5
2022-08-14T15:11:23.492Z,33.5
2022-08-14T15:16:53.247Z,33.5
2022-08-14T15:22:25.186Z,33.4
2022-08-14T15:27:54.359Z,33.5
2022-08-14T15:33:22.540Z,33.5
2022-08-14T15:38:52.622Z,33.6
2022-08-14T15:44:25.810Z,33.6
2022-08-14T15:49:52.820Z,33.6
2022-08-14T15:55:21.829Z,33.5
2022-08-14T16:00:52.564Z,33.5
2022-08-14T16:06:22.037Z,33.6
2022-08-14T16:11:53.574Z,33.5
2022-08-14T16:17:21.233Z,33.6
2022-08-14T16:22:58.839Z,33.5
2022-08-14T16:28:27.480Z,33.6
2022-08-14T16:33:58.653Z,33.5
2022-08-14T16:39:20.793Z,33.6
2022-08-14T16:44:49.789Z,33.6
2022-08-14T16:50:40.429Z,33.5
2022-08-14T16:55:53.553Z,33.5
2022-08-14T17:01:24.869Z,33.5
2022-08-14T17:06:49.112Z,33.5
2022-08-14T17:12:33.710Z,33.5
2022-08-14T17:17:50.103Z,33.5
2022-08-14T17:23:18.494Z,33.5
2022-08-14T17:28:51.632Z,33.5
2022-08-14T17:34:18.609Z,33.4
2022-08-14T17:39:50.397Z,33.4
2022-08-14T17:45:17.757Z,33.4
2022-08-14T17:51:00.564Z,33.3
2022-08-14T17:56:16.901Z,33.4
2022-08-14T18:01:46.515Z,33.4
2022-08-14T18:07:50.401Z,33.4
2022-08-14T18:12:46.149Z,33.4
2022-08-14T18:18:16.184Z,33.4
2022-08-14T18:23:45.308Z,33.4
2022-08-14T18:29:15.383Z,33.4
2022-08-14T18:34:50.858Z,33.4
2022-08-14T18:40:14.659Z,33.3
2022-08-14T18:45:44.674Z,33.3
2022-08-14T18:51:13.778Z,33.3
2022-08-14T18:56:43.895Z,33.3
2022-08-14T19:02:20.691Z,33.3
2022-08-14T19:07:48.053Z,33.3
2022-08-14T19:13:13.387Z,33.2
2022-08-14T19:18:43.294Z,33.2
2022-08-14T19:24:27.953Z,33.2
2022-08-14T19:29:42.645Z,33.2
2022-08-14T19:35:16.998Z,33.1
2022-08-14T19:40:41.901Z,33.1
2022-08-14T19:46:38.773Z,33.1
2022-08-14T19:51:42.139Z,33
2022-08-14T19:57:11.301Z,32.9
2022-08-14T20:02:41.424Z,32.9
2022-08-14T20:11:01.367Z,32.8
2022-08-14T20:13:41.684Z,32.8
2022-08-14T20:19:10.911Z,32.7
2022-08-14T20:24:41.811Z,32.7
2022-08-14T20:30:29.727Z,32.6
2022-08-14T20:35:41.843Z,32.6
2022-08-14T20:41:12.388Z,32.6
2022-08-14T20:46:42.295Z,32.5
2022-08-14T20:52:19.094Z,32.5
2022-08-14T20:57:43.408Z,32.5
2022-08-14T21:03:09.358Z,32.5
2022-08-14T21:08:39.525Z,32.5
2022-08-14T21:14:24.963Z,32.5
2022-08-14T21:19:38.877Z,32.4
2022-08-14T21:25:11.059Z,32.4
2022-08-14T21:30:46.948Z,32.4
2022-08-14T21:36:08.629Z,32.4
2022-08-14T21:41:42.344Z,32.4
2022-08-14T21:47:08.058Z,32.4
2022-08-14T21:52:51.113Z,32.4
2022-08-14T21:58:53.064Z,32.4
2022-08-14T22:03:39.618Z,32.4
2022-08-14T22:09:07.711Z,32.3
2022-08-14T22:14:43.374Z,32.3
2022-08-14T22:20:07.055Z,32.3
2022-08-14T22:25:40.959Z,32.3
2022-08-14T22:31:10.518Z,32.3
2022-08-14T22:36:42.312Z,32.4
2022-08-14T22:42:21.044Z,32.3
2022-08-14T22:47:40.764Z,32.3
2022-08-14T22:53:06.026Z,32.3
2022-08-14T22:58:35.204Z,32.3
2022-08-14T23:04:06.106Z,32.3
2022-08-14T23:09:38.660Z,32.3
2022-08-14T23:15:04.717Z,32.3
2022-08-14T23:20:36.350Z,32.2
2022-08-14T23:26:47.842Z,32.3
2022-08-14T23:31:36.272Z,32.3
2022-08-14T23:37:04.668Z,32.2
2022-08-14T23:42:40.080Z,32.2
2022-08-14T23:48:03.821Z,32.2
2022-08-14T23:53:47.306Z,32.2
2022-08-14T23:59:03.278Z,32.2
